x

Los Angeles Pier F, Ca - 9410670 (pfxc1) Weather Station

11:54 - Sun 2nd Aug 2015 All times are PDT. -7 hours from GMT.

  • Wind
    3mph, 5mph gusts
  • Air Temp 69°f
  • Sea Pressure 1010.3mb
  • Los Angeles Pier F, Ca - 9410670
  • Los Angeles Pier F, Ca - 9410670

More Historic Weather Station data

Upgrade to MSW Pro to gain access to the past 30 days of data for over 8000 Wavebouys and Weather Stations around the globe.

Join Pro

Comparision Forecast

View Surf forecast
   
dim. 08/02 11:54 3 5 mph 1010.3mb 69f
11:48 3 5 mph 1010.4mb 69f
11:42 5 6 mph 1010.4mb 69f
11:36 5
mph
1010.3mb 69f
11:30 5 7 mph 1010.3mb 69f
11:24 6 7 mph 1010.4mb 69f
11:18 5 6 mph 1010.3mb 69f
11:12 3 5 mph 1010.4mb 69f
11:06 6 7 mph 1010.4mb 70f
11:00 6 8 mph 1010.4mb 70f
10:54 6 8 mph 1010.4mb 69f
10:48 8 10 mph 1010.3mb 69f
10:42 9 11 mph 1010.3mb 69f
10:36 9
mph
1010.3mb 70f
10:30 7 8 mph 1010.3mb 70f
10:24 6 7 mph 1010.3mb 70f
10:18 7 9 mph 1010.2mb 70f
10:12 6 8 mph 1010.2mb 70f
10:06 6 7 mph 1010.2mb 71f
10:00 6 7 mph 1010.1mb 70f
9:54 6 8 mph 1010.1mb 70f
9:48 8 9 mph 1010.1mb 70f
9:42 7 9 mph 1010mb 70f
9:36 8 9 mph 1009.9mb 70f
9:30 7 9 mph 1009.9mb 70f
9:24 5 7 mph 1009.7mb 71f
9:12 3 5 mph 1009.6mb 72f
9:06 5 7 mph 1009.5mb 72f
9:00 6 7 mph 1009.5mb 72f
8:54 6 8 mph 1009.5mb 72f
8:48 6 7 mph 1009.4mb 72f
8:42 8 10 mph 1009.3mb 73f
8:36 9 11 mph 1009.3mb 73f
8:30 9 13 mph 1009.3mb 73f
8:24 10 13 mph 1009.3mb 73f
8:18 10 11 mph 1009.3mb 73f
8:12 10 13 mph 1009.2mb 73f
8:06 10 13 mph 1009.2mb 73f
8:00 8 11 mph 1009.2mb 73f
7:54 6 8 mph 1009.2mb 73f
7:48 5 6 mph 1009.2mb 74f
7:42 5 7 mph 1009.1mb 74f
7:36 6 8 mph 1009.1mb 74f
7:30 7 11 mph 1009mb 74f
7:24 8 10 mph 1009mb 75f
7:18 7 8 mph 1009mb 75f
7:12 6 7 mph 1008.9mb 76f
7:06 5 6 mph 1008.9mb 77f
7:00 7 9 mph 1008.8mb 76f
6:54 7 9 mph 1008.7mb 76f
6:48 6 8 mph 1008.7mb 76f
6:42 6 8 mph 1008.6mb 76f
6:36 8 10 mph 1008.5mb 76f
6:30 7 8 mph 1008.6mb 78f
6:24 5 6 mph 1008.7mb 79f
6:18 5 6 mph 1008.8mb 78f
6:12 6 7 mph 1008.7mb 78f
6:06 8 10 mph 1008.7mb 77f
6:00 8 10 mph 1008.8mb 78f
5:54 8 10 mph 1008.9mb 78f
5:48 8 10 mph 1008.9mb 78f
5:42 9 11 mph 1009mb 78f
5:36 10 13 mph 1009.1mb 77f
5:30 13 15 mph 1009.1mb 77f
5:24 13 15 mph 1009.2mb 77f
5:18 14 15 mph 1009.3mb 76f
5:12 14 16 mph 1009.2mb 75f
5:06 14 16 mph 1009.1mb 75f
5:00 15
mph
1009.2mb 76f
4:54 15 16 mph 1009.2mb 76f
4:48 15 16 mph 1009.2mb 76f
4:42 15 16 mph 1009.2mb 76f
4:36 14 15 mph 1009.3mb 76f
4:30 14 15 mph 1009.3mb 76f
4:24 14 15 mph 1009.4mb 76f
4:18 16 17 mph 1009.5mb 75f
4:12 15 17 mph 1009.6mb 75f
4:06 15 16 mph 1009.7mb 75f
4:00 16 17 mph 1009.8mb 75f
3:54 16 18 mph 1009.9mb 74f
3:48 17 18 mph 1010mb 74f
3:42 16 17 mph 1010.2mb 74f
3:36 14 16 mph 1010.3mb 73f
3:30 14 17 mph 1010.5mb 73f
3:24 14 15 mph 1010.5mb 72f
3:18 13 14 mph 1010.5mb 72f
3:12 11 14 mph 1010.5mb 71f
3:06 11 14 mph 1010.6mb 72f
3:00 13 14 mph 1010.7mb 72f
2:54 11 14 mph 1010.7mb 72f
2:48 10 13 mph 1010.6mb 71f
2:42 11 14 mph 1010.8mb 72f
2:36 13 14 mph 1010.9mb 72f
2:30 11 14 mph 1010.9mb 72f
2:24 11 13 mph 1010.9mb 73f
2:18 10 13 mph 1010.9mb 74f
2:12 10 11 mph 1011.1mb 74f
2:06 10 11 mph 1011.2mb 74f
2:00 10 11 mph 1011.4mb 74f
1:54 10 11 mph 1011.5mb 73f
1:48 10 11 mph 1011.4mb 72f
1:42 10 11 mph 1011.5mb 72f
1:36 9 10 mph 1011.5mb 71f
1:30 9 10 mph 1011.5mb 71f
1:24 9 10 mph 1011.6mb 71f
1:18 9 10 mph 1011.7mb 70f
1:12 8 9 mph 1011.6mb 70f
1:06 8 9 mph 1011.6mb 70f
1:00 8 9 mph 1011.8mb 70f
12:54 8 9 mph 1011.8mb 70f
12:48 8 9 mph 1011.9mb 70f
12:42 9 10 mph 1011.9mb 70f
12:36 9 10 mph 1011.9mb 70f
12:30 8
mph
1012mb 70f
12:24 8 9 mph 1012mb 70f
12:18 8 9 mph 1012.1mb 70f
12:12 9 10 mph 1012.1mb 70f
12:06 9 10 mph 1012.1mb 71f
12:00 9
mph
1012.2mb 71f
11:54 9 10 mph 1012.3mb 71f
11:48 9 10 mph 1012.3mb 71f
11:42 9 10 mph 1012.3mb 71f
11:36 9 10 mph 1012.3mb 71f
11:30 9 10 mph 1012.3mb 71f
11:24 8 9 mph 1012.3mb 71f
11:18 8 9 mph 1012.3mb 70f
11:12 8
mph
1012.4mb 70f
11:06 8
mph
1012.4mb 70f
11:00 7 8 mph 1012.5mb 70f
10:48 7 8 mph 1012.4mb 70f
10:42 7 8 mph 1012.4mb 70f
10:36 7 8 mph 1012.4mb 71f
10:30 7 8 mph 1012.4mb 71f
10:24 6 7 mph 1012.6mb 71f
10:18 6
mph
1012.7mb 70f
10:12 6 7 mph 1012.6mb 70f
10:06 6 7 mph 1012.6mb 70f
10:00 6
mph
1012.5mb 70f
9:54 6
mph
1012.6mb 70f
9:48 6 7 mph 1012.6mb 70f
9:42 6
mph
1012.6mb 70f
9:36 6
mph
1012.6mb 70f
9:30 6
mph
1012.6mb 70f
9:24 5 6 mph 1012.6mb 71f
9:18 5 6 mph 1012.6mb 71f
9:12 6
mph
1012.6mb 70f
9:06 6 7 mph 1012.6mb 70f
9:00 6 7 mph 1012.6mb 70f
8:54 6
mph
1012.6mb 70f
8:48 5 6 mph 1012.6mb 69f
8:42 3 5 mph 1012.6mb 69f
8:36 2 3 mph 1012.6mb 69f
8:30 3
mph
1012.6mb 69f
8:24 5 6 mph 1012.5mb 69f
8:18 5
mph
1012.5mb 69f
8:12 3 6 mph 1012.5mb 69f
8:06 3 5 mph 1012.4mb 69f
8:00 3 6 mph 1012.3mb 69f
7:54 3 5 mph 1012.3mb 69f
7:48 3 5 mph 1012.2mb 69f
7:42 3 5 mph 1012.1mb 69f
7:36 3 5 mph 1012.1mb 69f
7:30 5 6 mph 1012.1mb 69f
7:24 2 5 mph 1012mb 69f
7:18 1 3 mph 1011.9mb 69f
7:12 2 5 mph 1011.8mb 69f
7:06 2 5 mph 1011.9mb 69f
7:00 5 7 mph 1011.9mb 69f
6:54 6 8 mph 1011.8mb 68f
6:48 5 7 mph 1011.8mb 69f
6:42 6 7 mph 1011.7mb 69f
6:36 6
mph
1011.5mb 69f
6:30 5 6 mph 1011.5mb 68f
6:24 6 7 mph 1011.4mb 69f
6:18 3 6 mph 1011.4mb 69f
6:12 3 5 mph 1011.4mb 69f
6:06 6 8 mph 1011.3mb 69f
6:00 2 6 mph 1011.3mb 69f
5:54 2 3 mph 1011.2mb 69f
5:48 3
mph
1011.2mb 69f
5:42 2 6 mph 1011.1mb 68f
5:36 2 6 mph 1011.2mb 68f
5:30 2
mph
1011.1mb 68f
5:24 2 3 mph 1011mb 68f
5:18 2 3 mph 1011mb 68f
5:12 2 3 mph 1011.1mb 68f
5:06 2 3 mph 1011.1mb 68f
4:48 3
mph
1011.2mb 68f
4:42 3
mph
1011.2mb 68f
4:36 3 5 mph 1011.2mb 68f
4:30 3
mph
1011.3mb 68f
4:24 3 5 mph 1011.2mb 68f
4:18 5
mph
1011.2mb 68f
4:12 5
mph
1011.2mb 68f
4:06 5
mph
1011.3mb 68f
4:00 5
mph
1011.3mb 68f
3:54 3 5 mph 1011.2mb 68f
3:48 3
mph
1011.2mb 68f
3:42 3
mph
1011.2mb 68f
3:36 3
mph
1011.2mb 68f
3:30 3
mph
1011.3mb 68f
3:24 3
mph
1011.3mb 68f
3:18 2 3 mph 1011.3mb 68f
3:12 3
mph
1011.2mb 68f
3:06 3 5 mph 1011.3mb 68f
3:00 5
mph
1011.3mb 68f
2:54 3 5 mph 1011.3mb 68f
2:48 5 6 mph 1011.3mb 68f
2:42 5 6 mph 1011.3mb 68f
2:36 5
mph
1011.3mb 68f
2:30 5 6 mph 1011.5mb 68f
2:24 6
mph
1011.5mb 68f
2:18 6 7 mph 1011.5mb 68f
2:12 6 7 mph 1011.5mb 68f
2:06 6 7 mph 1011.5mb 68f
2:00 6 7 mph 1011.5mb 68f
1:54 5 6 mph 1011.5mb 68f
1:48 3 5 mph 1011.6mb 68f
1:42 5
mph
1011.6mb 68f
1:36 3 5 mph 1011.6mb 68f
1:30 3
mph
1011.7mb 68f
1:24 3
mph
1011.8mb 68f
1:18 2 3 mph 1011.8mb 68f
1:12 3 5 mph 1011.9mb 68f
1:06 5
mph
1011.9mb 68f
1:00 5 6 mph 1011.9mb 69f
12:54 5 6 mph 1011.9mb 69f
12:48 6
mph
1011.9mb 69f
12:42 5 6 mph 1011.8mb 69f
12:36 3 5 mph 1011.8mb 69f
12:30 5
mph
1011.9mb 68f
12:24 5 6 mph 1012mb 69f
12:18 3 5 mph 1012mb 69f
12:12 5
mph
1012.1mb 69f
12:06 2 3 mph 1012.1mb 69f
12:00 2 3 mph 1012.2mb 69f
sam. 08/01 11:54 3
mph
1012.2mb 69f
11:48 3
mph
1012.2mb -
11:36 2 3 mph 1012.2mb -
11:30 3
mph
1012.2mb 69f
11:24 3
mph
1012.2mb 69f
11:18 3
mph
1012.3mb 69f
11:12 3
mph
1012.3mb 69f
11:06 3 5 mph 1012.3mb 69f
11:00 5
mph
1012.3mb 69f
10:54 5
mph
1012.3mb 69f
10:48 5
mph
1012.3mb 69f
10:42 3
mph
1012.3mb 69f
10:36 3
mph
1012.2mb 69f
10:30 3
mph
1012.3mb 70f
10:24 3 5 mph 1012.3mb 70f
10:18 2
mph
1012.3mb 70f
10:12 2
mph
1012.3mb 69f
10:06 2 3 mph 1012.2mb 69f
10:00 1 2 mph 1012.2mb 70f
9:54  -  1 mph 1012.1mb 70f
9:48  -  1 mph 1012mb 70f
9:36 1 3 mph 1011.9mb 70f
9:30 2 3 mph 1011.9mb 71f
9:24 2 5 mph 1011.9mb 71f
9:18 5 6 mph 1011.9mb 71f
9:12 6 7 mph 1011.9mb 71f
9:06 3 5 mph 1011.8mb 71f
9:00 3 6 mph 1011.7mb 71f
8:54 6 7 mph 1011.6mb 71f
8:48 7
mph
1011.5mb -
8:42 7 8 mph 1011.5mb -
8:36 7 8 mph 1011.5mb -
8:30 7 9 mph 1011.4mb 72f
8:24 7 9 mph 1011.3mb 72f
8:18 8 9 mph 1011.2mb 73f
8:12 8 9 mph 1011.3mb 73f
8:06 8 9 mph 1011.3mb 73f
8:00 5 9 mph 1011.3mb 73f
7:54 5 6 mph 1011.2mb 73f
7:48 5 6 mph 1011.2mb 73f
7:42 5 6 mph 1011.1mb 74f
7:36 6 8 mph 1011mb 74f
7:30 6 7 mph 1011mb 74f
7:24 6 7 mph 1011mb 75f
7:18 7 9 mph 1010.9mb 75f
7:12 7 9 mph 1010.9mb 75f
7:06 8 9 mph 1010.8mb 75f
7:00 7 9 mph 1010.8mb 75f
6:54 9 13 mph 1010.8mb 75f
6:48 10 13 mph 1010.8mb 75f
6:42 11 14 mph 1010.7mb 75f
6:36 10 13 mph 1010.7mb 76f
6:30 9 11 mph 1010.7mb 77f
6:24 8 9 mph 1010.7mb 77f
6:18 8 9 mph 1010.7mb 78f
6:12 8 11 mph 1010.7mb 78f
6:06 9 10 mph 1010.7mb 78f
6:00 9 10 mph 1010.8mb 78f
5:54 9 11 mph 1010.9mb 77f
5:48 9 11 mph 1010.9mb 76f
5:42 10 13 mph 1010.9mb 76f
5:36 11 13 mph 1010.9mb 76f
5:30 11 14 mph 1010.9mb 76f
5:24 9 14 mph 1010.9mb 76f
5:18 10 13 mph 1011mb 77f
5:12 10 14 mph 1011mb 77f
5:06 11 14 mph 1011mb 77f
5:00 13 15 mph 1011.1mb 76f
4:54 14 16 mph 1011.2mb 76f
4:48 14 15 mph 1011.2mb 76f
4:42 14 16 mph 1011.2mb 76f
4:36 14 16 mph 1011.2mb 76f
4:30 15 16 mph 1011.2mb 75f
4:24 15 17 mph 1011.2mb 75f
4:18 14 16 mph 1011.2mb 75f
4:12 15 17 mph 1011.2mb 76f
4:06 14 16 mph 1011.3mb 75f
4:00 14 17 mph 1011.3mb 75f
3:54 14 17 mph 1011.5mb 75f
3:48 16 18 mph 1011.5mb 74f
3:42 16 18 mph 1011.5mb 75f
3:36 16 20 mph 1011.6mb 75f
3:30 16 20 mph 1011.6mb 75f
3:24 16 20 mph 1011.6mb 75f
3:12 17 20 mph 1011.8mb 74f
3:06 17 21 mph 1011.8mb 74f
3:00 18 20 mph 1011.8mb 74f
2:54 17 20 mph 1011.8mb 74f
2:48 16 18 mph 1011.9mb 74f
2:42 16 20 mph 1012mb 74f
2:36 17 20 mph 1012mb 74f
2:30 17 20 mph 1012.1mb 74f
2:24 15 17 mph 1012.2mb 74f
2:18 15 18 mph 1012.3mb 74f
2:12 16 18 mph 1012.3mb 74f
2:06 16 17 mph 1012.4mb 74f
2:00 16 17 mph 1012.5mb 74f
1:54 16 18 mph 1012.5mb 74f
1:48 16 18 mph 1012.6mb 74f
1:42 16 17 mph 1012.7mb 74f
1:36 16 18 mph 1012.7mb 73f
1:30 16 17 mph 1012.8mb 73f
1:24 16 17 mph 1012.9mb 73f
1:18 15 17 mph 1012.9mb 74f
1:12 14 16 mph 1013.1mb 73f
1:06 15 16 mph 1013.1mb 73f
1:00 14 15 mph 1013.1mb 73f
12:54 13 15 mph 1013.2mb 74f
12:48 14 16 mph 1013.3mb 73f
12:42 14 15 mph 1013.4mb 74f
12:36 14 15 mph 1013.4mb 73f
12:24 14 15 mph 1013.6mb 73f
12:18 14 15 mph 1013.6mb 73f
12:12 14 15 mph 1013.7mb 73f
12:06 13 14 mph 1013.8mb 73f
12:00 13 14 mph 1013.8mb 73f
11:54 13 14 mph 1013.8mb 73f
11:48 13 14 mph 1013.8mb 73f
11:42 13 14 mph 1013.8mb 73f
11:36 11 13 mph 1013.9mb 73f
11:30 11 14 mph 1013.9mb 73f
11:24 11 13 mph 1013.9mb 73f
11:18 11 13 mph 1014mb 73f
11:12 11 13 mph 1014mb 73f
11:06 11 13 mph 1014.1mb 73f
11:00 10 13 mph 1014.1mb 73f
10:54 10 11 mph 1014.2mb 73f
10:48 10 11 mph 1014.2mb 73f
10:42 10 11 mph 1014.2mb 73f
10:36 9 10 mph 1014.2mb 73f
10:30 10 11 mph 1014.3mb 73f
10:24 10 11 mph 1014.3mb 73f
10:18 10
mph
1014.3mb 72f
10:12 9 11 mph 1014.3mb 71f
10:06 9 10 mph 1014.5mb 71f
10:00 9 10 mph 1014.6mb 70f
9:54 10 11 mph 1014.6mb 71f
9:48 9 10 mph 1014.7mb 71f
9:42 9 10 mph 1014.7mb 70f
9:36 8 9 mph 1014.5mb 70f
9:30 9
mph
1014.6mb 72f
9:24 9 10 mph 1014.6mb 72f
9:18 9 10 mph 1014.6mb 72f
9:12 9 10 mph 1014.6mb 71f
9:06 9 10 mph 1014.7mb 72f
9:00 8 9 mph 1014.7mb 71f
8:54 8
mph
1014.7mb 71f
8:48 8 9 mph 1014.7mb 71f
8:42 7 8 mph 1014.8mb 70f
8:36 7 8 mph 1014.8mb 71f
8:30 7 8 mph 1014.8mb 70f
8:24 7 8 mph 1014.8mb 70f
8:18 7 8 mph 1014.7mb 70f
8:12 7
mph
1014.6mb 70f
8:06 7
mph
1014.6mb 70f
8:00 7
mph
1014.6mb 70f
7:54 6 7 mph 1014.6mb 69f
7:48 6
mph
1014.5mb 69f
7:42 6 7 mph 1014.5mb 69f
7:36 5 6 mph 1014.5mb 69f
7:30 6
mph
1014.5mb 69f
7:24 6 7 mph 1014.5mb 69f
7:18 6 7 mph 1014.5mb 69f
7:12 6 7 mph 1014.5mb 69f
7:06 6 7 mph 1014.5mb 69f
7:00 7 8 mph 1014.5mb 69f
6:54 6 8 mph 1014.4mb 69f
6:48 7 8 mph 1014.3mb 69f
6:42 6 7 mph 1014.3mb 69f
6:36 6 7 mph 1014.3mb 69f
6:30 7 8 mph 1014.2mb 69f
6:24 6 7 mph 1014.1mb 69f
6:18 5 6 mph 1014mb 69f
6:12 6 7 mph 1014mb 69f
6:06 6 7 mph 1013.9mb 69f
6:00 5 6 mph 1013.9mb 69f
5:54 5 6 mph 1013.8mb 69f
5:48 5 6 mph 1013.8mb 69f
5:42 3 6 mph 1013.7mb 69f
5:36 5 6 mph 1013.6mb 69f
5:30 5 6 mph 1013.6mb 69f
5:24 3 6 mph 1013.6mb 69f
5:18 5 6 mph 1013.6mb 69f
5:12 3 5 mph 1013.6mb 69f
5:06 5 6 mph 1013.6mb 69f
5:00 6
mph
1013.6mb 69f
4:54 5 6 mph 1013.6mb 69f
4:48 5 6 mph 1013.6mb 69f
4:42 5 6 mph 1013.7mb 69f
4:36 5 6 mph 1013.7mb 69f
4:30 5
mph
1013.7mb 68f
4:24 5 6 mph 1013.7mb 68f
4:18 6 7 mph 1013.7mb 68f
4:12 6 7 mph 1013.7mb 68f
4:06 3 6 mph 1013.6mb 68f
4:00 3
mph
1013.6mb 68f
3:54 2 3 mph 1013.7mb 68f
3:48 3
mph
1013.7mb 68f
3:36 2
mph
1013.7mb 68f
3:30 2
mph
1013.7mb 68f
3:24 2
mph
1013.7mb 68f
3:18 1 2 mph 1013.8mb 68f
3:12 1 2 mph 1013.8mb 68f
3:06  -  1 mph 1013.8mb 68f
3:00  -  1 mph 1013.8mb 67f
2:54 1 2 mph 1013.7mb 67f
2:48 1 2 mph 1013.7mb 67f
2:42 2
mph
1013.8mb 67f
2:36 2 3 mph 1013.8mb 68f
2:30 3
mph
1013.8mb 68f
2:24 3
mph
1013.8mb 68f
2:18 2 3 mph 1013.8mb 67f
2:12 3
mph
1013.7mb 68f
2:06 5
mph
1013.7mb 68f
2:00 5
mph
1013.7mb 68f
1:54 3 5 mph 1013.8mb 68f
1:48 3 5 mph 1013.9mb 68f
1:42 3
mph
1014mb 68f
1:36 3 5 mph 1014mb 68f
1:30 3 5 mph 1013.9mb 68f
1:24 5 6 mph 1013.9mb 68f
1:18 6 7 mph 1014mb 68f
1:12 6 7 mph 1014mb 68f
1:06 6
mph
1014mb 68f
12:54 6 7 mph 1013.9mb 68f
12:48 6 7 mph 1013.9mb 68f
12:42 5 6 mph 1013.9mb 68f
12:36 3 5 mph 1013.9mb 68f
12:30 3 5 mph 1013.8mb 68f
12:24 3 5 mph 1013.8mb 68f
12:18 3 5 mph 1013.8mb 69f
12:12 2 3 mph 1013.9mb 69f
12:06 1 2 mph 1013.8mb 69f
12:00 1 2 mph 1013.7mb 69f
ven. 07/31 11:54 2 3 mph 1013.7mb 69f
11:48  -  mph 1013.7mb 69f
11:42  -  mph 1013.8mb 69f
11:36  -  mph 1013.8mb 69f
11:30 3
mph
1013.8mb 69f
11:24 3
mph
1013.7mb 69f
11:18 3 5 mph 1013.8mb 69f
11:12 5
mph
1013.7mb 70f
11:06 5 6 mph 1013.7mb 70f
11:00 6 7 mph 1013.7mb 70f
10:54 7 9 mph 1013.7mb 70f
10:48 8 9 mph 1013.6mb 70f
10:42 9 10 mph 1013.6mb 70f
10:36 9 10 mph 1013.6mb 70f
10:30 9 11 mph 1013.6mb 70f
10:24 8 9 mph 1013.7mb 70f
10:18 8 9 mph 1013.8mb 70f
10:12 9 10 mph 1013.7mb 70f
10:06 8 10 mph 1013.8mb 71f
10:00 7 9 mph 1013.8mb 71f
9:54 8 9 mph 1013.7mb 71f
9:48 10 13 mph 1013.7mb 71f
9:42 9 11 mph 1013.7mb 71f
9:36 9 11 mph 1013.7mb 71f
9:30 8 9 mph 1013.7mb 71f
9:24 8 10 mph 1013.7mb 72f
9:18 7 9 mph 1013.6mb 72f
9:12 7 9 mph 1013.6mb 72f
9:06 7 8 mph 1013.6mb 72f
9:00 7 8 mph 1013.6mb 72f
8:54 6 7 mph 1013.6mb 71f
8:48 1 2 mph 1013.4mb 71f
8:42 3 6 mph 1013.3mb 71f
8:36 5 6 mph 1013.2mb 71f
8:30 3
mph
1013.3mb 72f
8:24 3 5 mph 1013.1mb 72f
8:18 5 6 mph 1013.1mb 72f
8:12 3 6 mph 1013.1mb 73f
8:06 3 7 mph 1013mb 74f
8:00 3 5 mph 1013mb 74f
7:54 6 7 mph 1012.8mb 74f
7:48 7 8 mph 1012.6mb 75f
7:42 7 8 mph 1012.6mb 75f
7:36 9 10 mph 1012.4mb 75f
7:30 8 10 mph 1012.4mb 76f
7:24 8 10 mph 1012.4mb 76f
7:18 6 8 mph 1012.5mb 77f
7:12 3 6 mph 1012.4mb 77f
7:06 6 7 mph 1012.3mb 77f
7:00 6 8 mph 1012.3mb 77f
6:54 7 8 mph 1012.3mb 77f
6:48 7 11 mph 1012.3mb 77f
6:42 9 11 mph 1012.3mb 77f
6:36 10 13 mph 1012.3mb 77f
6:30 9 13 mph 1012.2mb 77f
6:24 9 10 mph 1012.3mb 77f
6:18 8 11 mph 1012.3mb 78f
6:12 7 9 mph 1012.3mb 78f
6:06 7 11 mph 1012.2mb 78f
6:00 7 9 mph 1012.2mb 79f
5:54 3 6 mph 1012.5mb 81f
5:48 5 7 mph 1012.6mb 82f
5:42 6 8 mph 1012.6mb 82f
5:36 6 9 mph 1012.7mb 81f
5:30 5 7 mph 1012.7mb 82f
5:24 6 9 mph 1012.8mb 82f
5:18 3 5 mph 1012.8mb 82f
5:12 3 7 mph 1013mb 82f
5:06 5 7 mph 1012.8mb 80f
5:00 6 7 mph 1012.9mb 80f
4:54 6 8 mph 1012.9mb 80f
4:48 6 8 mph 1013mb 80f
4:42 8 10 mph 1013mb 80f
4:36 10 14 mph 1013mb 79f
4:00 13 14 mph 1013.1mb 77f
3:54 14 15 mph 1013.1mb 76f
3:48 14 15 mph 1013.1mb 77f
3:42 14 15 mph 1013.2mb 78f
3:36 15 16 mph 1013.3mb 77f
3:30 15 16 mph 1013.4mb 77f
3:24 14 16 mph 1013.5mb 77f
3:18 14 16 mph 1013.6mb 77f
3:12 14 16 mph 1013.6mb 78f
3:06 14 16 mph 1013.7mb 77f
3:00 13 15 mph 1013.8mb 77f
2:54 15 17 mph 1013.8mb 76f
2:48 15 16 mph 1014mb 76f
2:42 15 16 mph 1014.2mb 76f
2:36 14 16 mph 1014.2mb 74f
2:30 15 16 mph 1014.2mb 74f
2:24 15 16 mph 1014.2mb 74f
2:18 16 17 mph 1014.3mb 74f
2:12 16 17 mph 1014.4mb 74f
2:06 16 17 mph 1014.5mb 74f
2:00 16 17 mph 1014.5mb 74f
1:54 15 17 mph 1014.6mb 74f
1:48 13 16 mph 1014.7mb 73f
1:42 15 17 mph 1014.7mb 73f
1:36 15 16 mph 1014.8mb 74f
1:30 15 16 mph 1014.8mb 74f
1:24 15 16 mph 1014.9mb 75f
1:18 14 15 mph 1015.2mb 75f
1:12 14 15 mph 1015.2mb 75f
1:06 14 15 mph 1015.3mb 75f
1:00 13 14 mph 1015.3mb 76f
12:54 13 14 mph 1015.4mb 75f
12:48 11 14 mph 1015.5mb 75f
12:42 11 13 mph 1015.5mb 75f
12:36 11 13 mph 1015.6mb 75f
12:30 10 11 mph 1015.7mb 74f
12:24 10 11 mph 1015.7mb 75f
12:18 9 10 mph 1015.8mb 75f
12:12 9 10 mph 1015.8mb 75f
12:06 8 9 mph 1015.8mb 75f
12:00 8 9 mph 1015.9mb 74f
11:54 8 9 mph 1016mb 75f
11:48 8 9 mph 1016.1mb 74f
11:42 8 9 mph 1016.2mb 73f
11:36 7 8 mph 1016.1mb 71f
11:30 7
mph
1016.1mb 72f
11:24 7 8 mph 1016.4mb 73f
11:18 7 8 mph 1016.4mb 71f
11:12 6 7 mph 1016.3mb 70f
11:06 6 7 mph 1016.4mb 70f
11:00 6 7 mph 1016.4mb 70f
10:54 6
mph
1016.4mb 70f
10:48 6
mph
1016.4mb 70f
10:42 6
mph
1016.4mb 70f
10:36 5 6 mph 1016.4mb 70f
10:30 5 6 mph 1016.3mb 70f
10:24 3 5 mph 1016.4mb 70f
10:18 3 5 mph 1016.4mb 71f
10:12 5
mph
1016.4mb 71f
10:06 3 5 mph 1016.4mb 70f
10:00 3
mph
1016.4mb 70f
9:54 2 3 mph 1016.4mb 70f
9:48 2 3 mph 1016.4mb 70f
9:42 1 2 mph 1016.5mb 71f
9:36 1 2 mph 1016.6mb 71f
9:30 2
mph
1016.6mb 71f
9:24  -  2 mph 1016.6mb 70f
9:18  -  1 mph 1016.6mb 70f
9:12 1 2 mph 1016.6mb 70f
9:06 2
mph
1016.6mb 69f
9:00 2 3 mph 1016.7mb 69f
8:54 2 5 mph 1016.7mb 69f
8:48 3 5 mph 1016.8mb 69f
8:42 3
mph
1016.7mb 68f
8:36 3 5 mph 1016.7mb 68f
8:30 3 5 mph 1016.7mb 68f
8:18 6 7 mph 1016.5mb 68f
8:12 7
mph
1016.4mb 68f
8:06 7 8 mph 1016.4mb 68f
8:00 7
mph
1016.4mb 69f
7:54 6 7 mph 1016.5mb 69f
7:48 6 7 mph 1016.5mb 69f
7:42 6 7 mph 1016.4mb 69f
7:36 5 8 mph 1016.3mb 69f
7:30 1 2 mph 1016.3mb 69f
7:24  -  1 mph 1016.4mb 69f
7:18 2 3 mph 1016.3mb 69f
7:12 2 3 mph 1016.2mb 69f
7:06 2 3 mph 1016.1mb 69f
7:00 1 2 mph 1016.1mb 69f
6:54 2
mph
1016mb 69f
6:48 2
mph
1016mb 69f
6:42 2 3 mph 1015.9mb 69f
6:36 2
mph
1015.8mb 69f
6:30 2 3 mph 1015.8mb 69f
6:18 2 3 mph 1015.7mb 69f
6:12 1 2 mph 1015.6mb 69f
6:06 1 2 mph 1015.6mb 69f
6:00 2 3 mph 1015.5mb 69f
5:54 3 5 mph 1015.4mb 69f
5:48 5
mph
1015.3mb 69f
5:42 5
mph
1015.3mb 69f
5:36 5
mph
1015.3mb 69f
5:30 6 8 mph 1015.3mb 69f
5:24 6 8 mph 1015.3mb 69f
5:18 5
mph
1015.3mb 69f
5:12 5 6 mph 1015.2mb 69f
5:06 6
mph
1015.1mb 69f
5:00 6 7 mph 1015mb 69f
4:54 6 7 mph 1015mb 68f
4:48 7 8 mph 1015mb 68f
4:42 7 8 mph 1015mb 68f
4:36 8 9 mph 1015mb 69f
4:30 8 9 mph 1015mb 69f
4:24 9
mph
1015mb 69f
4:18 8 10 mph 1015mb 69f
4:12 8 9 mph 1015mb 68f
4:06 8 9 mph 1014.9mb 69f
4:00 8 9 mph 1015mb 68f
3:54 7 8 mph 1015.1mb 69f
3:48 5 6 mph 1015.1mb 69f
3:42 6
mph
1015.1mb 69f
3:36 5 6 mph 1015.3mb 69f
3:30 5 6 mph 1015.3mb 69f
3:24 6
mph
1015.3mb 69f
3:18 5
mph
1015.3mb 69f
3:12 5
mph
1015.2mb 69f
3:06 5 6 mph 1015.1mb 69f
3:00 6 7 mph 1015mb 69f
2:54 6
mph
1015mb 69f
2:48 6
mph
1015mb 69f
2:42 5 6 mph 1015mb 69f
2:36 6 7 mph 1015mb 69f
2:30 3 5 mph 1015mb 69f
2:24 5
mph
1015.1mb 69f
2:18 3 5 mph 1015.2mb 70f
2:12 5 6 mph 1015.3mb 69f
2:06 3 5 mph 1015.3mb 69f
2:00 6
mph
1015.3mb 69f
1:54 6
mph
1015.3mb 69f
1:48 6 7 mph 1015.3mb 69f
1:42 5 6 mph 1015.3mb 69f
1:36 5 6 mph 1015.4mb 69f
1:30 5 6 mph 1015.4mb 69f
1:24 7
mph
1015.3mb 69f
1:18 6 7 mph 1015.3mb 69f
1:12 7 8 mph 1015.3mb 69f
1:06 6 7 mph 1015.5mb 69f
1:00 6
mph
1015.5mb 69f
12:54 3 5 mph 1015.6mb 69f
12:48 3
mph
1015.7mb 70f
12:42 2 3 mph 1015.8mb 70f
12:36 2 3 mph 1015.8mb 70f
12:30 2 3 mph 1015.8mb 70f
12:24 3 5 mph 1015.8mb 70f
12:18 5 6 mph 1015.8mb 70f
12:12 5
mph
1015.8mb 70f
12:06 3 6 mph 1015.8mb 70f
12:00 2
mph
1015.9mb 70f
jeu. 07/30 11:54 3 5 mph 1016mb 70f
11:48 6 7 mph 1015.9mb 70f
11:42 7 8 mph 1016mb 70f
11:36 7 8 mph 1015.9mb 70f
11:30 6 7 mph 1015.9mb 70f
11:24 6 7 mph 1015.9mb 70f
11:18 7
mph
1015.9mb 70f
11:12 7 8 mph 1015.8mb 70f
11:06 7 8 mph 1015.8mb 70f
11:00 6 7 mph 1015.8mb 70f
10:54 5 6 mph 1015.7mb 71f
10:48 6 7 mph 1015.7mb 71f
10:42 6 8 mph 1015.6mb 71f
10:36 6 8 mph 1015.6mb 71f
10:30 6 7 mph 1015.8mb 71f
10:24 6 8 mph 1015.8mb 71f
10:18 8 10 mph 1015.7mb 71f
10:12 8 9 mph 1015.5mb 71f
10:06 8 9 mph 1015.4mb 71f
10:00 5 7 mph 1015.3mb 71f
9:54 5 6 mph 1015.2mb 71f
9:48 3 6 mph 1015.2mb 71f
9:42 5 7 mph 1015.1mb 72f
9:36 6
mph
1015mb 73f
9:30 6 8 mph 1015mb 72f
9:24 8 9 mph 1014.9mb 72f
9:18 9 10 mph 1014.7mb 72f
9:12 8 11 mph 1014.7mb 73f
9:06 8
mph
1014.6mb 73f
9:00 10 11 mph 1014.6mb 72f
8:54 10 13 mph 1014.5mb 72f
8:48 10 13 mph 1014.5mb 73f
8:42 9 13 mph 1014.5mb 73f
8:36 6 9 mph 1014.6mb 72f
8:30 1 3 mph 1014.6mb 71f
8:24 2 3 mph 1014.5mb 71f
8:18 2
mph
1014.5mb 72f
8:12 2 5 mph 1014.3mb 72f
8:06 5 7 mph 1014.3mb 72f
8:00 7 9 mph 1014.2mb 72f
7:54 8 10 mph 1014mb 72f
7:48 8 10 mph 1013.9mb 72f
7:42 7 10 mph 1013.8mb 72f
7:36 9 11 mph 1013.7mb 72f
7:30 13 15 mph 1013.6mb 73f
7:24 11 14 mph 1013.5mb 74f
7:18 7 10 mph 1013.6mb 75f
7:12 9 10 mph 1013.4mb 75f
7:00 11 14 mph 1013.4mb 74f
6:54 13 15 mph 1013.4mb 73f
6:48 14 15 mph 1013.5mb 74f
6:42 14 15 mph 1013.5mb 74f
6:36 14 15 mph 1013.2mb 74f
6:30 11 13 mph 1013.2mb 76f
6:24 7 10 mph 1013.4mb 78f
6:18 7 9 mph 1013.5mb 79f
6:12 8 10 mph 1013.4mb 78f
6:06 8 10 mph 1013.2mb 77f
6:00 9 11 mph 1013.2mb 77f
5:54 9 13 mph 1013.3mb 77f
5:48 13 14 mph 1013.3mb 77f
5:42 14
mph
1013.2mb 77f
5:36 11 14 mph 1013.2mb 78f
5:30 10 13 mph 1013.2mb 78f
5:24 10 14 mph 1013.2mb 78f
5:18 14 15 mph 1013.2mb 77f
5:12 14 16 mph 1013.3mb 77f
5:06 13 15 mph 1013.2mb 78f
5:00 11 15 mph 1013.3mb 79f
4:54 11 14 mph 1013.3mb 79f
4:48 11 14 mph 1013.3mb 78f
4:42 9 14 mph 1013.3mb 78f
4:36 13 14 mph 1013.3mb 78f
4:30 14 15 mph 1013.2mb 78f
4:24 14 15 mph 1013.1mb 78f
4:18 14 15 mph 1013.1mb 79f
4:12 14 15 mph 1013.1mb 78f
4:06 13 16 mph 1013.1mb 78f
4:00 14
mph
1013.1mb 78f
3:54 13 14 mph 1013.3mb 79f
3:48 9 11 mph 1013.3mb 80f
3:42 8 10 mph 1013.4mb 80f
3:36 9 11 mph 1013.5mb 80f
3:30 10 13 mph 1013.6mb 78f
3:24 13 14 mph 1013.6mb 78f
3:18 9 11 mph 1013.8mb 78f
3:12 10 14 mph 1013.9mb 79f
3:06 13 15 mph 1013.9mb 78f
3:00 15 17 mph 1013.9mb 77f
2:54 17 18 mph 1013.9mb 76f
2:48 18 20 mph 1013.8mb 76f
2:42 17 18 mph 1014mb 76f
2:36 17 18 mph 1013.9mb 76f
2:30 18 20 mph 1013.9mb 76f
2:24 18 20 mph 1013.9mb 76f
2:18 17 20 mph 1013.9mb 76f
2:12 16 18 mph 1013.9mb 76f
2:06 16 17 mph 1014.1mb 76f
2:00 15 16 mph 1014.2mb 76f
1:54 15
mph
1014.2mb 77f
1:48 14 15 mph 1014.3mb 77f
1:42 14
mph
1014.3mb 77f
1:36 15
mph
1014.4mb 76f
1:30 14 15 mph 1014.2mb 76f
1:24 14
mph
1014.5mb 77f
1:18 14
mph
1014.5mb 77f
1:12 14 15 mph 1014.5mb 77f
1:06 14 15 mph 1014.5mb 77f
1:00 14 15 mph 1014.6mb 77f
12:54 14
mph
1014.7mb 77f
12:48 14 15 mph 1014.7mb 77f
12:42 14 15 mph 1014.7mb 76f
12:36 13 14 mph 1014.7mb 76f
12:30 13 14 mph 1014.7mb 76f
12:24 11 13 mph 1014.9mb 76f
12:18 11 13 mph 1015mb 76f
12:12 11 13 mph 1014.9mb 75f
12:06 9 11 mph 1014.9mb 76f
12:00 10 11 mph 1015mb 77f
11:54 8 10 mph 1015.2mb 78f
11:48 8 10 mph 1015.3mb 77f
11:42 9 11 mph 1015.3mb 77f
11:30 13
mph
1015.3mb 76f
11:24 11 13 mph 1015.2mb 76f
11:18 10 11 mph 1015.3mb 77f
11:12 9 10 mph 1015.3mb 77f
11:06 10 11 mph 1015.3mb 76f
11:00 9 11 mph 1015.3mb 76f
10:54 11 13 mph 1015.3mb 75f
10:48 10 11 mph 1015.3mb 75f
10:42 10 11 mph 1015.5mb 75f
10:36 9 10 mph 1015.7mb 74f
10:30 10 11 mph 1015.2mb 73f
10:24 9 11 mph 1015.1mb 73f
10:18 7 9 mph 1015mb 74f
10:12 6 7 mph 1015.1mb 74f
10:06 6 7 mph 1015.3mb 76f
10:00 6 7 mph 1015.3mb 77f
9:54 6 7 mph 1015.4mb 76f
9:48 6 7 mph 1015.4mb 74f
9:42 6 7 mph 1015.4mb 74f
9:36 6 7 mph 1015.3mb 74f
9:30 6 7 mph 1015.5mb 73f
9:24 6 7 mph 1015.5mb 71f
9:18 5
mph
1015.5mb 71f
9:12 5
mph
1015.4mb 70f
9:06 3 5 mph 1015.4mb 71f
9:00 2 3 mph 1015.4mb 70f
8:54  -  1 mph 1015.4mb 70f
8:48  -  1 mph 1015.4mb 70f
8:42  -  1 mph 1015.3mb 70f
8:36  -  1 mph 1015.2mb 70f
8:30  -  1 mph 1015.1mb 69f
8:24 1 2 mph 1015.2mb 70f
8:18 2 3 mph 1015.3mb 70f
8:12 2
mph
1015.3mb 70f
8:06 1 2 mph 1015.3mb 70f
8:00  -  1 mph 1015.1mb 70f